Time;durP1;ratioP1;P1;durP2;ratioP2;P2;SDS_P1;SDS_P2;PMS_P1;PMS_P2;Temp;Humidity;BMP_temperature;BMP_pressure;BME280_temperature;BME280_humidity;BME280_pressure;Samples;Min_cycle;Max_cycle;Signal;HPM_P1;HPM_P2
2023/12/19 00:00:32;;;;;;;;;;;18.80;55.70;;;;;;7390598;19;1708;-62
2023/12/19 00:02:58;;;;;;;;;;;18.80;55.70;;;;;;7390144;19;3062;-63
2023/12/19 00:08:26;;;;;;;;;;;18.80;55.70;;;;;;7376379;19;4130;-74
2023/12/19 00:10:52;;;;;;;;;;;18.80;55.70;;;;;;7392856;19;3000;-74
2023/12/19 00:13:17;;;;;;;;;;;18.70;55.60;;;;;;7394184;19;1855;-74
2023/12/19 00:15:42;;;;;;;;;;;18.70;55.70;;;;;;7388649;19;2671;-74
2023/12/19 00:18:08;;;;;;;;;;;18.70;55.80;;;;;;7397258;19;2839;-74
2023/12/19 00:20:33;;;;;;;;;;;18.70;55.80;;;;;;7400815;19;1692;-75
2023/12/19 00:22:59;;;;;;;;;;;18.70;55.80;;;;;;7395995;19;3080;-74
2023/12/19 00:25:24;;;;;;;;;;;18.60;55.70;;;;;;7398183;19;3221;-74
2023/12/19 00:27:50;;;;;;;;;;;18.60;55.80;;;;;;7399330;19;2710;-75
2023/12/19 00:30:15;;;;;;;;;;;18.60;55.70;;;;;;7396698;19;2668;-74
2023/12/19 00:32:41;;;;;;;;;;;18.60;55.80;;;;;;7400958;19;3072;-74
2023/12/19 00:35:06;;;;;;;;;;;18.60;55.80;;;;;;7399858;19;1853;-74
2023/12/19 00:37:32;;;;;;;;;;;18.60;55.80;;;;;;7395664;19;2754;-74
2023/12/19 00:39:57;;;;;;;;;;;18.70;55.90;;;;;;7399431;19;2955;-74
2023/12/19 00:42:23;;;;;;;;;;;18.50;55.70;;;;;;7396905;19;1464;-74
2023/12/19 00:44:48;;;;;;;;;;;18.50;55.70;;;;;;7399415;19;3069;-74
2023/12/19 00:47:14;;;;;;;;;;;18.50;55.80;;;;;;7400235;19;3057;-74
2023/12/19 00:49:39;;;;;;;;;;;18.50;55.90;;;;;;7400366;19;1503;-74
2023/12/19 00:52:04;;;;;;;;;;;18.50;55.90;;;;;;7397937;19;4426;-74
2023/12/19 00:54:30;;;;;;;;;;;18.50;55.90;;;;;;7396344;19;2665;-74
2023/12/19 00:56:55;;;;;;;;;;;18.40;55.80;;;;;;7399924;19;1529;-74
2023/12/19 00:59:21;;;;;;;;;;;18.40;55.80;;;;;;7394839;19;3109;-74
2023/12/19 01:01:47;;;;;;;;;;;18.40;55.80;;;;;;7398258;19;3179;-74
2023/12/19 01:04:12;;;;;;;;;;;18.40;55.80;;;;;;7397551;19;1896;-74
2023/12/19 01:06:38;;;;;;;;;;;18.40;55.80;;;;;;7396811;19;2535;-75
2023/12/19 01:09:04;;;;;;;;;;;18.40;55.80;;;;;;7397817;19;1555;-75
2023/12/19 01:11:29;;;;;;;;;;;18.40;55.80;;;;;;7395787;19;1603;-74
2023/12/19 01:13:55;;;;;;;;;;;18.40;55.80;;;;;;7395669;19;3247;-74
2023/12/19 01:16:20;;;;;;;;;;;18.40;55.90;;;;;;7396536;19;2150;-75
2023/12/19 01:18:46;;;;;;;;;;;18.40;55.90;;;;;;7399307;19;1577;-74
2023/12/19 01:21:11;;;;;;;;;;;18.30;55.80;;;;;;7396171;19;3706;-74
2023/12/19 01:23:37;;;;;;;;;;;18.30;55.90;;;;;;7399274;19;1283;-74
2023/12/19 01:26:02;;;;;;;;;;;18.30;55.80;;;;;;7396795;19;1509;-74
2023/12/19 01:28:27;;;;;;;;;;;18.30;55.90;;;;;;7393539;19;2703;-74
2023/12/19 01:30:56;;;;;;;;;;;18.30;55.80;;;;;;7397385;19;1565;-75
2023/12/19 01:33:21;;;;;;;;;;;18.30;55.80;;;;;;7396441;19;1778;-75
2023/12/19 01:35:47;;;;;;;;;;;18.20;55.80;;;;;;7391087;19;3543;-74
2023/12/19 01:38:14;;;;;;;;;;;18.20;55.80;;;;;;7397320;19;1810;-74
2023/12/19 01:40:39;;;;;;;;;;;18.20;55.80;;;;;;7396154;19;1918;-74
2023/12/19 01:43:14;;;;;;;;;;;18.20;55.90;;;;;;7396520;19;2690;-74
2023/12/19 01:45:39;;;;;;;;;;;18.20;55.80;;;;;;7397457;19;2515;-74
2023/12/19 01:48:05;;;;;;;;;;;18.20;55.90;;;;;;7397309;19;1533;-74
2023/12/19 01:50:30;;;;;;;;;;;18.20;55.90;;;;;;7396580;19;3027;-75
2023/12/19 01:52:56;;;;;;;;;;;18.20;55.90;;;;;;7396756;19;1888;-74
2023/12/19 01:55:25;;;;;;;;;;;18.10;55.80;;;;;;7392651;19;1915;-74
2023/12/19 01:57:50;;;;;;;;;;;18.10;55.90;;;;;;7394972;19;2786;-75
2023/12/19 02:00:16;;;;;;;;;;;18.10;56.00;;;;;;7396925;19;1630;-75
2023/12/19 02:02:41;;;;;;;;;;;18.10;55.90;;;;;;7397348;19;1502;-74
2023/12/19 02:05:10;;;;;;;;;;;18.10;56.00;;;;;;7393613;19;2995;-74
2023/12/19 02:07:35;;;;;;;;;;;18.10;56.00;;;;;;7392530;19;4195;-74
2023/12/19 02:10:01;;;;;;;;;;;18.10;56.10;;;;;;7393401;19;2752;-74
2023/12/19 02:12:26;;;;;;;;;;;18.10;56.00;;;;;;7395617;19;2844;-75
2023/12/19 02:14:52;;;;;;;;;;;18.10;55.90;;;;;;7396795;19;1845;-74
2023/12/19 02:17:17;;;;;;;;;;;18.10;55.90;;;;;;7396822;19;1581;-74
2023/12/19 02:19:43;;;;;;;;;;;18.10;55.80;;;;;;7394332;19;2819;-74
2023/12/19 02:22:09;;;;;;;;;;;18.20;55.80;;;;;;7397114;19;1856;-75
2023/12/19 02:24:34;;;;;;;;;;;18.30;55.60;;;;;;7395167;19;1508;-74
2023/12/19 02:27:00;;;;;;;;;;;18.40;55.40;;;;;;7394254;19;2866;-74
2023/12/19 02:29:25;;;;;;;;;;;18.50;55.00;;;;;;7397666;19;2016;-74
2023/12/19 02:31:50;;;;;;;;;;;18.70;54.80;;;;;;7395796;19;1847;-75
2023/12/19 02:34:16;;;;;;;;;;;18.80;54.30;;;;;;7393008;19;2685;-75
2023/12/19 02:36:41;;;;;;;;;;;18.90;54.10;;;;;;7395792;19;907;-75
2023/12/19 02:39:08;;;;;;;;;;;19.00;54.10;;;;;;7394662;19;1788;-75
2023/12/19 02:41:34;;;;;;;;;;;19.10;53.90;;;;;;7391821;19;2870;-75
2023/12/19 02:43:59;;;;;;;;;;;19.20;53.70;;;;;;7396045;19;1519;-75
2023/12/19 02:46:25;;;;;;;;;;;19.30;53.50;;;;;;7395818;19;1585;-75
2023/12/19 02:48:50;;;;;;;;;;;19.30;53.30;;;;;;7394534;19;3522;-75
2023/12/19 02:51:19;;;;;;;;;;;19.30;53.20;;;;;;7395928;19;1673;-75
2023/12/19 02:53:45;;;;;;;;;;;19.40;53.30;;;;;;7396363;19;1570;-75
2023/12/19 02:56:10;;;;;;;;;;;19.40;53.20;;;;;;7388484;19;2833;-74
2023/12/19 02:58:36;;;;;;;;;;;19.40;53.30;;;;;;7393307;19;1793;-75
2023/12/19 03:01:01;;;;;;;;;;;19.40;53.20;;;;;;7396899;19;1679;-75
2023/12/19 03:03:27;;;;;;;;;;;19.30;53.20;;;;;;7391114;19;4403;-75
2023/12/19 03:05:52;;;;;;;;;;;19.30;53.30;;;;;;7394683;19;2018;-75
2023/12/19 03:08:18;;;;;;;;;;;19.20;53.40;;;;;;7393780;19;1950;-75
2023/12/19 03:10:43;;;;;;;;;;;19.20;53.50;;;;;;7390575;19;3238;-75
2023/12/19 03:13:09;;;;;;;;;;;19.20;53.60;;;;;;7392351;19;2053;-75
2023/12/19 03:15:35;;;;;;;;;;;19.10;53.60;;;;;;7389004;19;1849;-75
2023/12/19 03:18:00;;;;;;;;;;;19.00;53.70;;;;;;7388701;19;3194;-75
2023/12/19 03:20:26;;;;;;;;;;;19.00;53.70;;;;;;7394688;19;2850;-75
2023/12/19 03:22:51;;;;;;;;;;;19.00;53.70;;;;;;7392367;19;1607;-74
2023/12/19 03:25:16;;;;;;;;;;;19.00;54.60;;;;;;7389821;19;2747;-75
2023/12/19 03:27:42;;;;;;;;;;;18.90;53.90;;;;;;7392905;19;1905;-75
2023/12/19 03:30:08;;;;;;;;;;;18.90;54.00;;;;;;7391358;19;1671;-75
2023/12/19 03:32:33;;;;;;;;;;;18.90;54.00;;;;;;7388787;19;3669;-75
2023/12/19 03:34:58;;;;;;;;;;;18.80;54.00;;;;;;7391026;19;1933;-75
2023/12/19 03:37:24;;;;;;;;;;;18.80;54.00;;;;;;7390409;19;2497;-74
2023/12/19 03:39:49;;;;;;;;;;;18.80;54.00;;;;;;7390078;19;2836;-75
2023/12/19 03:42:15;;;;;;;;;;;18.80;54.10;;;;;;7391259;19;2197;-75
2023/12/19 03:44:41;;;;;;;;;;;18.70;54.10;;;;;;7391164;19;1572;-75
2023/12/19 03:47:07;;;;;;;;;;;18.70;54.10;;;;;;7392886;19;2822;-74
2023/12/19 03:49:32;;;;;;;;;;;18.70;54.20;;;;;;7392363;19;1888;-74
2023/12/19 03:51:57;;;;;;;;;;;18.70;54.10;;;;;;7395586;19;1896;-75
2023/12/19 03:54:24;;;;;;;;;;;18.70;54.00;;;;;;7396074;19;2771;-74
2023/12/19 03:56:50;;;;;;;;;;;18.80;54.00;;;;;;7400300;19;1893;-74
2023/12/19 03:59:15;;;;;;;;;;;18.70;54.00;;;;;;7397623;19;2073;-74
2023/12/19 04:01:44;;;;;;;;;;;18.70;54.00;;;;;;7399468;19;3247;-74
2023/12/19 04:04:10;;;;;;;;;;;18.80;54.00;;;;;;7399781;19;3482;-75
2023/12/19 04:06:38;;;;;;;;;;;18.80;54.00;;;;;;7398449;19;2847;-74
2023/12/19 04:09:04;;;;;;;;;;;18.80;54.00;;;;;;7396068;19;2519;-75
2023/12/19 04:11:29;;;;;;;;;;;18.80;54.00;;;;;;7399005;19;1847;-75
2023/12/19 04:13:55;;;;;;;;;;;18.90;53.90;;;;;;7395701;19;2985;-75
2023/12/19 04:16:20;;;;;;;;;;;18.90;53.80;;;;;;7399543;19;2705;-75
2023/12/19 04:18:45;;;;;;;;;;;19.00;53.60;;;;;;7399509;19;2237;-74
2023/12/19 04:21:11;;;;;;;;;;;19.00;53.70;;;;;;7397925;19;2784;-75
2023/12/19 04:23:36;;;;;;;;;;;19.00;53.60;;;;;;7399565;19;2480;-75
2023/12/19 04:26:02;;;;;;;;;;;19.00;53.50;;;;;;7399601;19;1707;-74
2023/12/19 04:28:27;;;;;;;;;;;19.00;54.20;;;;;;7396672;19;4086;-75
2023/12/19 04:30:53;;;;;;;;;;;19.00;53.50;;;;;;7399272;19;2755;-74
2023/12/19 04:33:18;;;;;;;;;;;19.00;53.50;;;;;;7394156;19;2402;-74
2023/12/19 04:35:44;;;;;;;;;;;19.00;53.60;;;;;;7396362;19;4127;-74
2023/12/19 04:38:09;;;;;;;;;;;18.90;53.70;;;;;;7398546;19;3265;-74
2023/12/19 04:40:34;;;;;;;;;;;18.90;53.70;;;;;;7395723;19;2051;-74
2023/12/19 04:43:00;;;;;;;;;;;18.90;53.80;;;;;;7396992;19;2699;-74
2023/12/19 04:45:26;;;;;;;;;;;18.90;53.90;;;;;;7398308;19;2630;-74
2023/12/19 04:47:51;;;;;;;;;;;18.80;53.80;;;;;;7397518;19;2220;-74
2023/12/19 04:50:17;;;;;;;;;;;18.80;54.00;;;;;;7396353;19;3894;-74
2023/12/19 04:52:42;;;;;;;;;;;18.80;54.00;;;;;;7397957;19;2125;-75
2023/12/19 04:55:08;;;;;;;;;;;18.80;54.00;;;;;;7396023;19;2278;-74
2023/12/19 04:57:33;;;;;;;;;;;18.80;54.00;;;;;;7393833;19;2654;-74
2023/12/19 04:59:59;;;;;;;;;;;18.70;54.00;;;;;;7398201;19;2977;-74
2023/12/19 05:02:24;;;;;;;;;;;18.70;53.90;;;;;;7395917;19;2009;-74
2023/12/19 05:04:49;;;;;;;;;;;18.70;53.90;;;;;;7395970;19;2822;-74
2023/12/19 05:07:15;;;;;;;;;;;18.80;54.00;;;;;;7395326;19;3184;-75
2023/12/19 05:09:41;;;;;;;;;;;18.70;53.90;;;;;;7395666;19;1983;-74
2023/12/19 05:12:07;;;;;;;;;;;18.80;54.00;;;;;;7395059;19;2803;-74
2023/12/19 05:14:32;;;;;;;;;;;18.80;54.00;;;;;;7395530;19;1887;-74
2023/12/19 05:16:59;;;;;;;;;;;18.80;54.00;;;;;;7398268;19;1909;-74
2023/12/19 05:19:25;;;;;;;;;;;18.80;54.00;;;;;;7392170;19;2460;-74
2023/12/19 05:21:50;;;;;;;;;;;18.80;54.00;;;;;;7396000;19;2590;-75
2023/12/19 05:24:17;;;;;;;;;;;18.80;54.10;;;;;;7398517;19;2313;-74
2023/12/19 05:26:43;;;;;;;;;;;18.70;53.90;;;;;;7395807;19;2904;-74
2023/12/19 05:29:08;;;;;;;;;;;18.70;53.90;;;;;;7397628;19;1946;-74
2023/12/19 05:31:34;;;;;;;;;;;18.70;53.90;;;;;;7396494;19;2213;-74
2023/12/19 05:33:59;;;;;;;;;;;18.70;53.90;;;;;;7395787;19;2992;-75
2023/12/19 05:36:25;;;;;;;;;;;18.70;53.90;;;;;;7392890;19;1854;-74
2023/12/19 05:38:50;;;;;;;;;;;18.80;53.90;;;;;;7396177;19;1838;-75
2023/12/19 05:41:16;;;;;;;;;;;18.80;54.00;;;;;;7391859;19;3405;-75
2023/12/19 05:43:42;;;;;;;;;;;18.80;54.00;;;;;;7396303;19;1979;-75
2023/12/19 05:46:07;;;;;;;;;;;18.80;53.90;;;;;;7399197;19;1927;-74
2023/12/19 05:48:33;;;;;;;;;;;18.80;53.80;;;;;;7396356;19;2821;-75
2023/12/19 05:50:59;;;;;;;;;;;18.80;53.80;;;;;;7395845;19;2390;-75
2023/12/19 05:53:25;;;;;;;;;;;18.80;53.80;;;;;;7394765;19;2099;-75
2023/12/19 05:55:51;;;;;;;;;;;18.80;53.80;;;;;;7391294;19;3428;-74
2023/12/19 05:58:16;;;;;;;;;;;18.80;53.90;;;;;;7395288;19;2096;-74
2023/12/19 06:00:44;;;;;;;;;;;18.80;53.80;;;;;;7395034;19;2920;-74
2023/12/19 06:03:10;;;;;;;;;;;18.80;53.80;;;;;;7394805;19;2785;-75
2023/12/19 06:05:38;;;;;;;;;;;18.80;53.80;;;;;;7395393;19;1531;-75
2023/12/19 06:08:05;;;;;;;;;;;18.80;53.70;;;;;;7394408;19;1907;-75
2023/12/19 06:10:30;;;;;;;;;;;18.80;53.60;;;;;;7394052;19;3195;-74
2023/12/19 06:12:56;;;;;;;;;;;18.90;53.60;;;;;;7395241;19;1942;-74
2023/12/19 06:15:21;;;;;;;;;;;18.90;53.50;;;;;;7390767;19;2694;-75
2023/12/19 06:17:47;;;;;;;;;;;18.80;53.60;;;;;;7391884;19;3192;-75
2023/12/19 06:20:12;;;;;;;;;;;18.90;53.50;;;;;;7395113;19;1911;-75
2023/12/19 06:22:43;;;;;;;;;;;18.90;53.40;;;;;;7396913;19;1845;-75
2023/12/19 06:25:09;;;;;;;;;;;19.00;53.30;;;;;;7390390;19;3255;-74
2023/12/19 06:27:34;;;;;;;;;;;19.00;53.20;;;;;;7394316;19;1919;-74
2023/12/19 06:30:00;;;;;;;;;;;19.10;53.10;;;;;;7393948;19;1894;-74
2023/12/19 06:32:26;;;;;;;;;;;19.10;53.10;;;;;;7392160;19;2975;-74
2023/12/19 06:34:51;;;;;;;;;;;19.00;53.00;;;;;;7390129;19;1870;-74
2023/12/19 06:37:17;;;;;;;;;;;19.00;53.10;;;;;;7396024;19;1889;-74
2023/12/19 06:39:42;;;;;;;;;;;19.00;52.90;;;;;;7388107;19;3411;-75
2023/12/19 06:42:08;;;;;;;;;;;19.10;52.90;;;;;;7393569;19;2105;-74
2023/12/19 06:44:33;;;;;;;;;;;19.10;52.90;;;;;;7392829;19;1973;-74
2023/12/19 06:46:58;;;;;;;;;;;19.10;52.70;;;;;;7393709;19;2798;-75
2023/12/19 06:49:27;;;;;;;;;;;19.20;52.80;;;;;;7395399;19;1487;-75
2023/12/19 06:51:52;;;;;;;;;;;19.20;52.60;;;;;;7393793;19;1902;-74
2023/12/19 06:54:18;;;;;;;;;;;19.20;52.50;;;;;;7390974;19;2878;-74
2023/12/19 06:56:43;;;;;;;;;;;19.30;52.60;;;;;;7393423;19;1971;-75
2023/12/19 06:59:09;;;;;;;;;;;19.30;52.60;;;;;;7392339;19;2076;-75
2023/12/19 07:01:35;;;;;;;;;;;19.30;52.50;;;;;;7388495;19;3008;-74
2023/12/19 07:04:00;;;;;;;;;;;19.30;52.40;;;;;;7391994;19;2728;-74
2023/12/19 07:06:26;;;;;;;;;;;19.30;52.40;;;;;;7396873;19;1753;-73
2023/12/19 07:08:52;;;;;;;;;;;19.30;52.40;;;;;;7393033;19;2859;-75
2023/12/19 07:11:19;;;;;;;;;;;19.40;52.30;;;;;;7391855;19;2158;-75
2023/12/19 07:13:45;;;;;;;;;;;19.40;52.20;;;;;;7393410;19;1880;-75
2023/12/19 07:16:14;;;;;;;;;;;19.40;52.20;;;;;;7389617;19;2995;-74
2023/12/19 07:18:40;;;;;;;;;;;19.40;52.20;;;;;;7394935;19;1622;-74
2023/12/19 07:21:06;;;;;;;;;;;19.40;52.20;;;;;;7393264;19;1807;-74
2023/12/19 07:23:31;;;;;;;;;;;19.40;52.20;;;;;;7391094;19;3566;-75
2023/12/19 07:25:57;;;;;;;;;;;19.40;52.10;;;;;;7392920;19;1615;-74
2023/12/19 07:28:23;;;;;;;;;;;19.40;52.20;;;;;;7390743;19;2948;-74
2023/12/19 07:30:49;;;;;;;;;;;19.40;52.20;;;;;;7389851;19;3030;-74
2023/12/19 07:33:14;;;;;;;;;;;19.40;52.20;;;;;;7391366;19;1896;-74
2023/12/19 07:35:40;;;;;;;;;;;19.30;52.90;;;;;;7387354;19;2799;-75
2023/12/19 07:38:08;;;;;;;;;;;19.30;52.20;;;;;;7387416;19;3045;-74
2023/12/19 07:40:39;;;;;;;;;;;19.40;52.20;;;;;;7392438;19;2183;-75
2023/12/19 07:43:05;;;;;;;;;;;19.40;52.20;;;;;;7389105;19;2729;-75
2023/12/19 07:45:32;;;;;;;;;;;19.40;52.20;;;;;;7389842;19;3076;-75
2023/12/19 07:47:57;;;;;;;;;;;19.40;52.20;;;;;;7391254;19;3492;-74
2023/12/19 07:50:23;;;;;;;;;;;19.40;52.10;;;;;;7392000;19;1585;-75
2023/12/19 07:52:49;;;;;;;;;;;19.40;52.10;;;;;;7391606;19;2813;-75
2023/12/19 07:55:14;;;;;;;;;;;19.40;52.10;;;;;;7389876;19;1940;-75
2023/12/19 07:57:40;;;;;;;;;;;19.40;52.10;;;;;;7391547;19;2148;-74
2023/12/19 08:00:06;;;;;;;;;;;19.40;52.10;;;;;;7389193;19;2729;-74
2023/12/19 08:02:35;;;;;;;;;;;19.40;52.10;;;;;;7392142;19;2168;-75
2023/12/19 08:05:01;;;;;;;;;;;19.40;52.10;;;;;;7388821;19;2747;-74
2023/12/19 08:07:27;;;;;;;;;;;19.40;52.00;;;;;;7390216;19;3702;-75
2023/12/19 08:09:52;;;;;;;;;;;19.40;52.10;;;;;;7387473;19;3253;-75
2023/12/19 08:12:17;;;;;;;;;;;19.40;52.20;;;;;;7391220;19;1874;-75
2023/12/19 08:14:43;;;;;;;;;;;19.40;52.20;;;;;;7388475;19;3287;-74
2023/12/19 08:17:08;;;;;;;;;;;19.40;52.20;;;;;;7389019;19;2937;-75
2023/12/19 08:19:34;;;;;;;;;;;19.40;52.10;;;;;;7388905;19;5017;-75
2023/12/19 08:22:00;;;;;;;;;;;19.30;52.10;;;;;;7390611;19;4249;-75
2023/12/19 08:24:25;;;;;;;;;;;19.40;52.10;;;;;;7388244;19;2667;-75
2023/12/19 08:26:52;;;;;;;;;;;19.40;52.00;;;;;;7393035;19;1500;-75
2023/12/19 08:29:18;;;;;;;;;;;19.40;52.00;;;;;;7389832;19;3190;-75
2023/12/19 08:31:46;;;;;;;;;;;19.40;52.10;;;;;;7390428;19;2595;-75
2023/12/19 08:34:12;;;;;;;;;;;19.40;52.20;;;;;;7388024;19;2952;-74
2023/12/19 08:36:37;;;;;;;;;;;19.40;52.10;;;;;;7385902;19;2790;-75
2023/12/19 08:39:03;;;;;;;;;;;19.40;52.20;;;;;;7395376;19;1077;-75
2023/12/19 08:41:29;;;;;;;;;;;19.40;52.20;;;;;;7395590;19;804;-75
2023/12/19 08:43:54;;;;;;;;;;;19.40;52.30;;;;;;7399565;19;2865;-75
2023/12/19 08:46:20;;;;;;;;;;;19.30;52.30;;;;;;7399782;19;1613;-75
2023/12/19 08:48:48;;;;;;;;;;;19.40;52.40;;;;;;7398045;19;859;-75
2023/12/19 08:51:13;;;;;;;;;;;19.30;52.30;;;;;;7397222;19;3433;-75
2023/12/19 08:53:39;;;;;;;;;;;19.30;52.40;;;;;;7397141;19;1722;-74
2023/12/19 08:56:04;;;;;;;;;;;19.40;52.50;;;;;;7399638;19;1865;-73
2023/12/19 08:58:30;;;;;;;;;;;19.30;52.40;;;;;;7398964;19;4325;-73
2023/12/19 09:00:56;;;;;;;;;;;19.40;52.50;;;;;;7397161;19;4519;-74
2023/12/19 09:03:23;;;;;;;;;;;19.40;52.50;;;;;;7387550;19;4428;-74
2023/12/19 09:05:48;;;;;;;;;;;19.70;52.40;;;;;;7392453;19;2098;-74
2023/12/19 09:08:14;;;;;;;;;;;20.30;51.60;;;;;;7394556;19;1909;-74
2023/12/19 09:10:39;;;;;;;;;;;20.90;50.50;;;;;;7395083;19;2500;-75
2023/12/19 09:13:05;;;;;;;;;;;21.30;49.60;;;;;;7393720;19;1881;-76
2023/12/19 09:15:30;;;;;;;;;;;21.60;48.80;;;;;;7395640;19;1841;-76
2023/12/19 09:17:56;;;;;;;;;;;21.80;48.50;;;;;;7397888;19;1522;-74
2023/12/19 09:20:23;;;;;;;;;;;22.00;48.20;;;;;;7398094;19;2194;-74
2023/12/19 09:22:48;;;;;;;;;;;22.00;48.00;;;;;;7396820;19;2821;-73
2023/12/19 09:25:14;;;;;;;;;;;22.30;48.00;;;;;;7393307;19;1606;-75
2023/12/19 09:27:42;;;;;;;;;;;22.40;47.70;;;;;;7397242;19;1777;-74
2023/12/19 09:30:09;;;;;;;;;;;22.50;47.50;;;;;;7399141;19;1935;-74
2023/12/19 09:32:35;;;;;;;;;;;22.50;47.30;;;;;;7393761;19;1623;-75
2023/12/19 09:35:01;;;;;;;;;;;22.50;47.30;;;;;;7395698;19;1853;-74
2023/12/19 09:37:27;;;;;;;;;;;22.60;47.00;;;;;;7397371;19;1915;-73
2023/12/19 09:39:53;;;;;;;;;;;22.60;47.10;;;;;;7393547;19;1555;-73
2023/12/19 09:42:19;;;;;;;;;;;22.60;47.00;;;;;;7395322;19;1517;-74
2023/12/19 09:44:45;;;;;;;;;;;22.70;47.00;;;;;;7395483;19;1794;-74
2023/12/19 09:47:11;;;;;;;;;;;22.70;46.90;;;;;;7395006;19;2160;-75
2023/12/19 09:49:39;;;;;;;;;;;22.70;47.00;;;;;;7394994;19;1780;-74
2023/12/19 09:52:05;;;;;;;;;;;22.90;47.10;;;;;;7397332;19;1113;-74
2023/12/19 09:54:30;;;;;;;;;;;22.70;47.00;;;;;;7393807;19;1852;-74
2023/12/19 09:56:58;;;;;;;;;;;22.80;47.20;;;;;;7395865;19;1813;-74
2023/12/19 09:59:23;;;;;;;;;;;22.80;46.80;;;;;;7395523;19;1810;-74
2023/12/19 10:01:48;;;;;;;;;;;22.80;46.90;;;;;;7397474;19;1703;-75
2023/12/19 10:04:14;;;;;;;;;;;22.80;46.90;;;;;;7395581;19;1616;-74
2023/12/19 10:07:00;;;;;;;;;;;22.80;46.90;;;;;;7392290;19;1796;-75
2023/12/19 10:09:25;;;;;;;;;;;22.90;46.90;;;;;;7392763;19;1665;-74
2023/12/19 10:12:06;;;;;;;;;;;22.90;46.80;;;;;;7396129;19;1664;-75
2023/12/19 10:14:33;;;;;;;;;;;23.00;46.90;;;;;;7392513;19;1852;-74
2023/12/19 10:16:58;;;;;;;;;;;23.10;46.80;;;;;;7394599;19;2278;-74
2023/12/19 10:19:25;;;;;;;;;;;23.00;46.90;;;;;;7394512;19;1381;-75
2023/12/19 10:21:50;;;;;;;;;;;23.00;46.70;;;;;;7395969;19;1560;-74
2023/12/19 10:24:15;;;;;;;;;;;22.90;46.80;;;;;;7394068;19;1544;-74
2023/12/19 10:26:41;;;;;;;;;;;23.00;46.90;;;;;;7392365;19;2151;-74
2023/12/19 10:29:06;;;;;;;;;;;23.10;46.80;;;;;;7394080;19;1785;-74
2023/12/19 10:31:32;;;;;;;;;;;23.10;46.70;;;;;;7393717;19;2087;-74
2023/12/19 10:33:58;;;;;;;;;;;23.00;46.90;;;;;;7394918;19;1866;-73
2023/12/19 10:36:24;;;;;;;;;;;23.00;46.90;;;;;;7390683;19;1925;-75
2023/12/19 10:38:49;;;;;;;;;;;23.00;46.90;;;;;;7395049;19;1705;-75
2023/12/19 10:41:24;;;;;;;;;;;23.10;47.00;;;;;;7394670;19;1583;-74
2023/12/19 10:43:53;;;;;;;;;;;23.10;47.00;;;;;;7395546;19;1873;-74
2023/12/19 10:46:19;;;;;;;;;;;23.10;46.90;;;;;;7392849;19;1789;-75
2023/12/19 10:48:45;;;;;;;;;;;23.10;46.80;;;;;;7396610;19;2170;-74
2023/12/19 10:51:11;;;;;;;;;;;23.20;46.80;;;;;;7393525;19;2336;-74
2023/12/19 10:53:36;;;;;;;;;;;23.20;46.60;;;;;;7393773;19;1670;-74
2023/12/19 10:56:03;;;;;;;;;;;23.10;46.60;;;;;;7392524;19;1859;-74
2023/12/19 10:58:28;;;;;;;;;;;23.20;46.70;;;;;;7393433;19;1617;-74
2023/12/19 11:00:55;;;;;;;;;;;23.20;46.80;;;;;;7391342;19;1788;-74
2023/12/19 11:03:26;;;;;;;;;;;23.30;46.70;;;;;;7393626;19;1629;-75
2023/12/19 11:05:52;;;;;;;;;;;23.20;46.70;;;;;;7394733;19;1676;-75
2023/12/19 11:08:18;;;;;;;;;;;23.20;46.70;;;;;;7390521;19;1589;-75
2023/12/19 11:10:45;;;;;;;;;;;23.20;46.60;;;;;;7391696;19;1665;-74
2023/12/19 11:13:11;;;;;;;;;;;23.20;46.70;;;;;;7392432;19;1621;-75
2023/12/19 11:15:38;;;;;;;;;;;23.20;46.80;;;;;;7393337;19;1991;-74
2023/12/19 11:18:22;;;;;;;;;;;23.20;46.70;;;;;;7392858;19;1999;-74
2023/12/19 11:21:07;;;;;;;;;;;23.20;46.70;;;;;;7391905;19;2191;-74
2023/12/19 11:23:33;;;;;;;;;;;23.30;46.70;;;;;;7393709;19;1895;-74
2023/12/19 11:26:00;;;;;;;;;;;23.40;46.90;;;;;;7393063;19;1825;-73
2023/12/19 11:28:26;;;;;;;;;;;23.40;46.30;;;;;;7392771;19;1734;-74
2023/12/19 11:30:51;;;;;;;;;;;23.30;46.40;;;;;;7391676;19;2593;-75
2023/12/19 11:33:26;;;;;;;;;;;23.30;46.50;;;;;;7392345;19;1965;-75
2023/12/19 11:35:52;;;;;;;;;;;23.30;46.40;;;;;;7391029;19;1851;-71
2023/12/19 11:38:21;;;;;;;;;;;23.40;46.40;;;;;;7393092;19;1639;-72
2023/12/19 11:40:47;;;;;;;;;;;23.30;46.40;;;;;;7390887;19;1626;-72
2023/12/19 11:43:28;;;;;;;;;;;23.30;46.50;;;;;;7390833;19;6087;-73
2023/12/19 11:45:54;;;;;;;;;;;23.30;46.50;;;;;;7394569;19;2699;-75
2023/12/19 11:48:39;;;;;;;;;;;23.50;46.50;;;;;;7394517;19;1998;-73
2023/12/19 11:51:08;;;;;;;;;;;23.40;46.40;;;;;;7391677;19;4461;-73
2023/12/19 11:53:33;;;;;;;;;;;23.40;46.30;;;;;;7392394;19;3227;-75
2023/12/19 11:56:08;;;;;;;;;;;23.40;46.30;;;;;;7387086;19;4882;-73
2023/12/19 11:58:33;;;;;;;;;;;23.40;46.30;;;;;;7393970;19;1624;-74
2023/12/19 12:00:59;;;;;;;;;;;23.40;46.10;;;;;;7391247;19;1704;-75
2023/12/19 12:03:25;;;;;;;;;;;23.50;46.50;;;;;;7391658;19;6181;-75
2023/12/19 12:05:50;;;;;;;;;;;23.40;46.40;;;;;;7390096;19;4363;-75
2023/12/19 12:08:16;;;;;;;;;;;23.50;46.40;;;;;;7389877;19;3505;-76
2023/12/19 12:10:42;;;;;;;;;;;23.40;46.50;;;;;;7389223;19;1871;-75
2023/12/19 12:13:08;;;;;;;;;;;23.50;46.40;;;;;;7397056;19;2682;-76
2023/12/19 12:15:33;;;;;;;;;;;23.50;46.30;;;;;;7397509;19;1863;-76
2023/12/19 12:18:02;;;;;;;;;;;23.50;46.60;;;;;;7395821;19;4686;-75
2023/12/19 12:20:33;;;;;;;;;;;23.50;46.40;;;;;;7399062;19;3415;-75
2023/12/19 12:22:58;;;;;;;;;;;23.60;46.40;;;;;;7399770;19;1795;-74
2023/12/19 12:25:24;;;;;;;;;;;23.50;46.30;;;;;;7398771;19;2598;-74
2023/12/19 12:27:55;;;;;;;;;;;23.50;46.40;;;;;;7400162;19;1584;-74
2023/12/19 12:30:24;;;;;;;;;;;23.50;46.40;;;;;;7397273;19;3300;-74
2023/12/19 12:32:50;;;;;;;;;;;23.40;46.60;;;;;;7401916;19;2643;-74
2023/12/19 12:35:35;;;;;;;;;;;23.40;46.60;;;;;;7399198;19;1826;-74
2023/12/19 12:38:01;;;;;;;;;;;23.50;46.40;;;;;;7399890;19;2446;-74
2023/12/19 12:40:27;;;;;;;;;;;23.50;46.50;;;;;;7397484;19;1841;-74
2023/12/19 12:42:53;;;;;;;;;;;23.50;46.50;;;;;;7400271;19;1702;-74
2023/12/19 12:45:18;;;;;;;;;;;23.50;46.40;;;;;;7399476;19;1745;-74
2023/12/19 12:47:44;;;;;;;;;;;23.50;46.60;;;;;;7394657;19;4473;-74
2023/12/19 12:50:09;;;;;;;;;;;23.50;46.40;;;;;;7400704;19;3519;-74
2023/12/19 12:52:35;;;;;;;;;;;23.70;46.40;;;;;;7397554;19;1313;-75
2023/12/19 12:55:00;;;;;;;;;;;23.70;46.30;;;;;;7394636;19;1849;-74
2023/12/19 12:57:30;;;;;;;;;;;23.70;46.40;;;;;;7399721;19;1491;-74
2023/12/19 12:59:56;;;;;;;;;;;23.70;46.10;;;;;;7398003;19;1531;-75
2023/12/19 13:02:21;;;;;;;;;;;23.50;46.40;;;;;;7397826;19;1666;-74
2023/12/19 13:04:47;;;;;;;;;;;23.60;46.50;;;;;;7398054;19;2827;-74
2023/12/19 13:07:12;;;;;;;;;;;23.50;46.40;;;;;;7399659;19;1659;-74
2023/12/19 13:09:38;;;;;;;;;;;23.50;46.30;;;;;;7395227;19;1672;-75
2023/12/19 13:12:04;;;;;;;;;;;23.60;46.40;;;;;;7398891;19;1476;-74
2023/12/19 13:14:29;;;;;;;;;;;23.60;46.20;;;;;;7400226;19;1841;-75
2023/12/19 13:16:55;;;;;;;;;;;23.70;46.40;;;;;;7392299;19;4486;-74
2023/12/19 13:19:21;;;;;;;;;;;23.50;46.30;;;;;;7395836;19;3172;-74
2023/12/19 13:21:46;;;;;;;;;;;23.60;46.50;;;;;;7398426;19;1957;-75
2023/12/19 13:24:12;;;;;;;;;;;23.60;46.30;;;;;;7396585;19;3292;-74
2023/12/19 13:26:37;;;;;;;;;;;23.60;46.20;;;;;;7395838;19;1695;-75
2023/12/19 13:29:03;;;;;;;;;;;23.60;46.70;;;;;;7396555;19;1517;-75
2023/12/19 13:31:29;;;;;;;;;;;23.60;46.20;;;;;;7395796;19;4532;-75
2023/12/19 13:33:54;;;;;;;;;;;23.60;46.50;;;;;;7395573;19;2989;-75
2023/12/19 13:36:21;;;;;;;;;;;23.50;46.40;;;;;;7394166;19;2611;-74
2023/12/19 13:38:47;;;;;;;;;;;23.40;46.60;;;;;;7395949;19;2592;-74
2023/12/19 13:41:12;;;;;;;;;;;23.50;46.60;;;;;;7396297;19;1450;-74
2023/12/19 13:43:38;;;;;;;;;;;23.70;46.40;;;;;;7398378;19;1397;-75
2023/12/19 13:46:04;;;;;;;;;;;23.70;46.30;;;;;;7396934;19;1828;-74
2023/12/19 13:48:30;;;;;;;;;;;23.70;46.40;;;;;;7395609;19;1838;-74
2023/12/19 13:50:56;;;;;;;;;;;23.70;46.20;;;;;;7396893;19;1816;-74
2023/12/19 13:53:22;;;;;;;;;;;23.70;46.10;;;;;;7398397;19;1862;-74
2023/12/19 13:55:48;;;;;;;;;;;23.60;46.40;;;;;;7394523;19;1841;-74
2023/12/19 13:58:13;;;;;;;;;;;23.80;46.40;;;;;;7395419;19;1354;-75
2023/12/19 14:00:38;;;;;;;;;;;23.80;46.10;;;;;;7395831;19;1784;-75
2023/12/19 14:03:05;;;;;;;;;;;23.80;46.40;;;;;;7397579;19;1805;-74
2023/12/19 14:05:30;;;;;;;;;;;23.80;46.50;;;;;;7397344;19;1327;-75
2023/12/19 14:07:56;;;;;;;;;;;23.80;46.10;;;;;;7396168;19;2504;-75
2023/12/19 14:10:22;;;;;;;;;;;23.70;46.40;;;;;;7390426;19;3030;-75
2023/12/19 14:12:48;;;;;;;;;;;23.70;46.40;;;;;;7387384;19;4885;-74
2023/12/19 14:15:14;;;;;;;;;;;23.80;46.50;;;;;;7393838;19;4641;-74
2023/12/19 14:17:41;;;;;;;;;;;23.90;46.60;;;;;;7394783;19;1815;-75
2023/12/19 14:20:08;;;;;;;;;;;23.90;46.60;;;;;;7393537;19;1633;-74
2023/12/19 14:22:33;;;;;;;;;;;23.90;46.80;;;;;;7390630;19;1531;-74
2023/12/19 14:24:59;;;;;;;;;;;23.90;46.60;;;;;;7392986;19;1549;-74
2023/12/19 14:27:24;;;;;;;;;;;23.90;46.70;;;;;;7394643;19;1516;-75